createdAt,value
2023-08-09T00:01:45.916Z,15.30
2023-08-09T00:04:13.773Z,15.40
2023-08-09T00:06:42.106Z,15.40
2023-08-09T00:09:10.034Z,15.30
2023-08-09T00:11:37.849Z,15.30
2023-08-09T00:14:07.099Z,15.30
2023-08-09T00:16:35.005Z,15.30
2023-08-09T00:19:02.799Z,15.30
2023-08-09T00:21:30.647Z,15.40
2023-08-09T00:23:58.458Z,15.40
2023-08-09T00:26:26.620Z,15.50
2023-08-09T00:28:54.927Z,15.60
2023-08-09T00:31:24.308Z,15.50
2023-08-09T00:33:52.134Z,15.60
2023-08-09T00:36:19.943Z,15.60
2023-08-09T00:38:48.476Z,15.60
2023-08-09T00:41:16.425Z,15.60
2023-08-09T00:43:44.223Z,15.60
2023-08-09T00:46:12.554Z,15.60
2023-08-09T00:48:41.882Z,15.50
2023-08-09T00:51:11.002Z,15.60
2023-08-09T00:53:38.899Z,15.50
2023-08-09T00:56:06.962Z,15.50
2023-08-09T00:58:34.779Z,15.40
2023-08-09T01:01:02.690Z,15.40
2023-08-09T01:03:30.661Z,15.40
2023-08-09T01:06:05.054Z,15.50
2023-08-09T01:08:41.906Z,15.60
2023-08-09T01:11:15.311Z,15.60
2023-08-09T01:13:45.308Z,15.50
2023-08-09T01:16:13.942Z,15.50
2023-08-09T01:18:43.578Z,15.60
2023-08-09T01:21:13.405Z,15.60
2023-08-09T01:23:43.807Z,15.50
2023-08-09T01:26:12.581Z,15.50
2023-08-09T01:28:41.370Z,15.50
2023-08-09T01:31:09.272Z,15.50
2023-08-09T01:33:37.964Z,15.50
2023-08-09T01:36:13.730Z,15.50
2023-08-09T01:38:48.851Z,15.60
2023-08-09T01:41:17.501Z,15.60
2023-08-09T01:43:46.053Z,15.60
2023-08-09T01:46:14.510Z,15.60
2023-08-09T01:48:42.522Z,15.50
2023-08-09T01:51:10.461Z,15.60
2023-08-09T01:53:38.275Z,15.50
2023-08-09T01:56:07.676Z,15.60
2023-08-09T01:58:35.695Z,15.50
2023-08-09T02:01:03.578Z,15.50
2023-08-09T02:03:31.463Z,15.50
2023-08-09T02:05:59.582Z,15.40
2023-08-09T02:08:27.378Z,15.40
2023-08-09T02:10:55.255Z,15.40
2023-08-09T02:13:24.437Z,15.40
2023-08-09T02:15:52.316Z,15.40
2023-08-09T02:18:20.121Z,15.50
2023-08-09T02:20:48.114Z,15.50
2023-08-09T02:23:15.943Z,15.50
2023-08-09T02:25:43.756Z,15.50
2023-08-09T02:28:11.609Z,15.50
2023-08-09T02:30:40.811Z,15.50
2023-08-09T02:33:08.680Z,15.50
2023-08-09T02:35:53.164Z,15.50
2023-08-09T02:38:21.186Z,15.40
2023-08-09T02:40:50.216Z,15.40
2023-08-09T02:43:18.697Z,15.40
2023-08-09T02:45:48.281Z,15.40
2023-08-09T02:48:16.201Z,15.40
2023-08-09T02:50:44.622Z,15.40
2023-08-09T02:53:12.895Z,15.50
2023-08-09T02:55:41.102Z,15.40
2023-08-09T02:58:08.957Z,15.40
2023-08-09T03:00:37.389Z,15.40
2023-08-09T03:03:07.196Z,15.40
2023-08-09T03:05:35.768Z,15.40
2023-08-09T03:08:03.747Z,15.40
2023-08-09T03:10:31.788Z,15.40
2023-08-09T03:12:59.605Z,15.40
2023-08-09T03:15:27.438Z,15.30
2023-08-09T03:17:55.289Z,15.30
2023-08-09T03:20:24.484Z,15.30
2023-08-09T03:22:52.319Z,15.40
2023-08-09T03:25:20.631Z,15.30
2023-08-09T03:27:48.640Z,15.30
2023-08-09T03:30:16.470Z,15.30
2023-08-09T03:32:44.310Z,15.20
2023-08-09T03:35:12.139Z,15.20
2023-08-09T03:37:41.412Z,15.20
2023-08-09T03:40:13.445Z,15.20
2023-08-09T03:42:41.920Z,15.10
2023-08-09T03:45:10.837Z,15.10
2023-08-09T03:47:38.693Z,15.10
2023-08-09T03:50:07.193Z,15.10
2023-08-09T03:52:35.186Z,15.00
2023-08-09T03:55:04.545Z,15.00
2023-08-09T03:57:32.951Z,15.00
2023-08-09T04:00:00.772Z,14.90
2023-08-09T04:02:28.595Z,14.90
2023-08-09T04:04:56.774Z,14.90
2023-08-09T04:07:25.157Z,14.90
2023-08-09T04:09:52.969Z,14.90
2023-08-09T04:12:22.113Z,15.00
2023-08-09T04:14:49.901Z,15.00
2023-08-09T04:17:18.082Z,15.10
2023-08-09T04:19:45.915Z,15.10
2023-08-09T04:22:13.730Z,15.20
2023-08-09T04:24:41.631Z,15.20
2023-08-09T04:27:09.566Z,15.20
2023-08-09T04:29:38.731Z,15.20
2023-08-09T04:32:06.850Z,15.30
2023-08-09T04:34:34.908Z,15.30
2023-08-09T04:37:02.865Z,15.20
2023-08-09T04:39:30.917Z,15.20
2023-08-09T04:41:58.717Z,15.20
2023-08-09T04:44:27.877Z,15.20
2023-08-09T04:46:57.089Z,15.20
2023-08-09T04:49:24.956Z,15.20
2023-08-09T04:51:52.762Z,15.20
2023-08-09T04:54:20.562Z,15.20
2023-08-09T04:56:48.418Z,15.20
2023-08-09T04:59:16.301Z,15.20
2023-08-09T05:01:44.108Z,15.20
2023-08-09T05:04:13.312Z,15.20
2023-08-09T05:06:41.495Z,15.20
2023-08-09T05:09:09.482Z,15.20
2023-08-09T05:11:37.273Z,15.20
2023-08-09T05:14:05.332Z,15.30
2023-08-09T05:16:33.245Z,15.20
2023-08-09T05:19:01.054Z,15.20
2023-08-09T05:21:30.220Z,15.10
2023-08-09T05:23:58.043Z,15.10
2023-08-09T05:26:25.835Z,15.00
2023-08-09T05:28:53.785Z,15.00
2023-08-09T05:31:23.153Z,15.00
2023-08-09T05:33:52.621Z,15.00
2023-08-09T05:36:20.516Z,15.10
2023-08-09T05:38:49.708Z,15.20
2023-08-09T05:41:17.659Z,15.20
2023-08-09T05:43:45.658Z,15.30
2023-08-09T05:46:13.555Z,15.30
2023-08-09T05:48:41.528Z,15.40
2023-08-09T05:51:09.367Z,15.50
2023-08-09T05:53:38.156Z,15.50
2023-08-09T05:56:07.314Z,15.50
2023-08-09T05:58:35.105Z,15.60
2023-08-09T06:01:05.520Z,15.60
2023-08-09T06:03:33.487Z,15.60
2023-08-09T06:06:01.573Z,15.70
2023-08-09T06:08:29.375Z,15.60
2023-08-09T06:10:57.201Z,15.60
2023-08-09T06:13:27.105Z,15.60
2023-08-09T06:15:55.144Z,15.70
2023-08-09T06:18:23.055Z,15.70
2023-08-09T06:20:50.989Z,15.80
2023-08-09T06:23:19.250Z,15.80
2023-08-09T06:25:48.861Z,15.80
2023-08-09T06:28:16.669Z,15.80
2023-08-09T06:30:46.121Z,15.90
2023-08-09T06:33:14.109Z,15.80
2023-08-09T06:35:41.908Z,15.80
2023-08-09T06:38:15.816Z,15.80
2023-08-09T06:40:44.279Z,15.70
2023-08-09T06:43:12.133Z,15.70
2023-08-09T06:45:40.221Z,15.70
2023-08-09T06:48:10.127Z,15.70
2023-08-09T06:50:38.008Z,15.70
2023-08-09T06:53:05.932Z,15.80
2023-08-09T06:55:34.754Z,15.90
2023-08-09T06:58:02.599Z,16.10
2023-08-09T07:00:30.600Z,16.30
2023-08-09T07:02:58.470Z,16.40
2023-08-09T07:05:27.757Z,16.40
2023-08-09T07:07:57.887Z,16.50
2023-08-09T07:10:26.878Z,16.70
2023-08-09T07:12:54.903Z,16.80
2023-08-09T07:15:22.885Z,16.90
2023-08-09T07:17:50.716Z,16.90
2023-08-09T07:20:18.974Z,17.10
2023-08-09T07:22:48.519Z,17.20
2023-08-09T07:25:16.617Z,17.30
2023-08-09T07:27:45.124Z,17.40
2023-08-09T07:30:14.642Z,17.30
2023-08-09T07:32:42.717Z,17.20
2023-08-09T07:35:11.842Z,17.20
2023-08-09T07:37:42.843Z,17.30
2023-08-09T07:40:14.799Z,17.30
2023-08-09T07:42:43.385Z,17.30
2023-08-09T07:45:12.456Z,17.50
2023-08-09T07:47:41.268Z,17.60
2023-08-09T07:50:10.341Z,17.70
2023-08-09T07:52:38.256Z,17.80
2023-08-09T07:55:07.074Z,17.90
2023-08-09T07:57:36.219Z,17.90
2023-08-09T08:00:14.772Z,17.90
2023-08-09T08:02:44.777Z,18.00
2023-08-09T08:05:13.633Z,17.90
2023-08-09T08:07:42.259Z,17.70
2023-08-09T08:10:11.124Z,17.70
2023-08-09T08:12:40.969Z,17.90
2023-08-09T08:15:09.640Z,17.90
2023-08-09T08:17:37.653Z,17.80
2023-08-09T08:20:07.641Z,17.70
2023-08-09T08:22:35.511Z,17.80
2023-08-09T08:25:03.313Z,17.90
2023-08-09T08:27:35.938Z,18.10
2023-08-09T08:30:06.106Z,18.00
2023-08-09T08:32:33.989Z,18.10
2023-08-09T08:35:03.388Z,18.30
2023-08-09T08:37:31.294Z,18.50
2023-08-09T08:39:59.094Z,18.50
2023-08-09T08:42:28.244Z,18.70
2023-08-09T08:44:56.527Z,18.60
2023-08-09T08:47:26.665Z,18.50
2023-08-09T08:49:58.060Z,18.70
2023-08-09T08:52:29.141Z,18.60
2023-08-09T08:54:57.629Z,18.30
2023-08-09T08:57:27.516Z,18.40
2023-08-09T08:59:56.279Z,18.40
2023-08-09T09:02:25.587Z,18.40
2023-08-09T09:04:53.683Z,18.60
2023-08-09T09:07:21.760Z,18.60
2023-08-09T09:09:59.749Z,18.60
2023-08-09T09:12:27.955Z,18.40
2023-08-09T09:14:55.837Z,18.50
2023-08-09T09:17:25.462Z,18.80
2023-08-09T09:19:54.137Z,18.80
2023-08-09T09:22:29.379Z,18.80
2023-08-09T09:24:59.945Z,18.80
2023-08-09T09:27:29.298Z,19.10
2023-08-09T09:29:57.436Z,19.00
2023-08-09T09:32:26.738Z,19.00
2023-08-09T09:34:54.992Z,19.00
2023-08-09T09:37:27.650Z,19.00
2023-08-09T09:39:56.789Z,19.40
2023-08-09T09:42:34.298Z,19.50
2023-08-09T09:45:06.633Z,19.30
2023-08-09T09:47:39.450Z,19.40
2023-08-09T09:50:09.687Z,19.60
2023-08-09T09:52:38.082Z,19.70
2023-08-09T09:55:06.689Z,19.50
2023-08-09T09:57:34.934Z,19.30
2023-08-09T10:00:09.485Z,19.00
2023-08-09T10:02:45.694Z,18.90
2023-08-09T10:05:16.763Z,19.10
2023-08-09T10:07:47.795Z,19.40
2023-08-09T10:10:19.127Z,19.40
2023-08-09T10:12:53.346Z,19.30
2023-08-09T10:15:25.324Z,19.80
2023-08-09T10:17:59.317Z,20.00
2023-08-09T10:20:27.958Z,19.80
2023-08-09T10:22:58.113Z,19.50
2023-08-09T10:25:44.004Z,19.50
2023-08-09T10:28:11.921Z,19.20
2023-08-09T10:30:47.979Z,19.40
2023-08-09T10:33:20.936Z,19.90
2023-08-09T10:35:51.295Z,20.30
2023-08-09T10:38:23.452Z,20.20
2023-08-09T10:40:53.456Z,20.10
2023-08-09T10:43:22.935Z,19.60
2023-08-09T10:45:52.642Z,19.50
2023-08-09T10:48:26.698Z,19.40
2023-08-09T10:51:19.976Z,19.60
2023-08-09T10:54:04.090Z,19.50
2023-08-09T10:56:33.637Z,19.70
2023-08-09T10:59:07.274Z,19.70
2023-08-09T11:01:36.087Z,19.60
2023-08-09T11:04:10.136Z,19.70
2023-08-09T11:06:40.271Z,19.40
2023-08-09T11:09:10.489Z,19.60
2023-08-09T11:11:40.193Z,19.40
2023-08-09T11:14:08.903Z,19.60
2023-08-09T11:16:37.154Z,19.70
2023-08-09T11:19:13.562Z,20.00
2023-08-09T11:21:51.534Z,19.40
2023-08-09T11:24:21.798Z,19.80
2023-08-09T11:26:51.165Z,19.80
2023-08-09T11:29:21.397Z,20.30
2023-08-09T11:31:52.171Z,20.60
2023-08-09T11:34:23.630Z,20.70
2023-08-09T11:36:54.231Z,21.00
2023-08-09T11:39:25.077Z,20.50
2023-08-09T11:41:57.129Z,20.60
2023-08-09T11:44:29.139Z,20.70
2023-08-09T11:46:58.184Z,20.90
2023-08-09T11:49:31.270Z,20.40
2023-08-09T11:52:01.505Z,20.30
2023-08-09T11:54:30.628Z,20.40
2023-08-09T11:56:59.697Z,20.20
2023-08-09T11:59:28.192Z,20.20
2023-08-09T12:01:58.782Z,20.50
2023-08-09T12:04:28.748Z,20.60
2023-08-09T12:06:59.361Z,20.50
2023-08-09T12:09:31.745Z,20.40
2023-08-09T12:12:08.519Z,20.40
2023-08-09T12:14:37.869Z,20.20
2023-08-09T12:17:06.284Z,20.20
2023-08-09T12:19:34.777Z,20.50
2023-08-09T12:22:06.159Z,20.40
2023-08-09T12:24:34.299Z,20.70
2023-08-09T12:27:04.066Z,21.30
2023-08-09T12:29:31.988Z,21.60
2023-08-09T12:32:01.284Z,21.50
2023-08-09T12:34:29.621Z,21.60
2023-08-09T12:36:57.923Z,21.80
2023-08-09T12:39:28.798Z,22.30
2023-08-09T12:41:57.222Z,22.20
2023-08-09T12:44:26.200Z,21.70
2023-08-09T12:46:54.824Z,21.70
2023-08-09T12:49:23.090Z,21.70
2023-08-09T12:51:50.947Z,22.00
2023-08-09T12:54:18.906Z,22.20
2023-08-09T12:56:48.197Z,22.30
2023-08-09T12:59:16.105Z,21.80
2023-08-09T13:01:43.994Z,22.10
2023-08-09T13:04:13.449Z,21.90
2023-08-09T13:06:41.418Z,21.90
2023-08-09T13:09:10.584Z,21.80
2023-08-09T13:11:38.553Z,21.60
2023-08-09T13:14:08.518Z,21.60
2023-08-09T13:16:36.573Z,21.30
2023-08-09T13:19:05.455Z,20.90
2023-08-09T13:21:33.369Z,20.40
2023-08-09T13:24:01.245Z,20.40
2023-08-09T13:26:29.103Z,20.10
2023-08-09T13:28:57.057Z,19.80
2023-08-09T13:31:26.948Z,19.50
2023-08-09T13:33:54.849Z,19.60
2023-08-09T13:36:22.714Z,19.40
2023-08-09T13:38:50.604Z,19.30
2023-08-09T13:41:18.544Z,19.20
2023-08-09T13:43:46.619Z,19.30
2023-08-09T13:46:14.640Z,19.40
2023-08-09T13:48:43.852Z,19.30
2023-08-09T13:51:11.784Z,19.30
2023-08-09T13:53:39.708Z,19.30
2023-08-09T13:56:07.557Z,19.40
2023-08-09T13:58:35.478Z,19.20
2023-08-09T14:01:03.525Z,19.40
2023-08-09T14:03:31.446Z,19.20
2023-08-09T14:06:02.454Z,19.20
2023-08-09T14:08:30.452Z,19.10
2023-08-09T14:10:58.290Z,19.00
2023-08-09T14:13:26.140Z,19.00
2023-08-09T14:15:57.974Z,19.10
2023-08-09T14:18:26.001Z,19.10
2023-08-09T14:20:53.908Z,19.00
2023-08-09T14:23:23.145Z,18.90
2023-08-09T14:25:50.993Z,19.10
2023-08-09T14:28:21.430Z,19.10
2023-08-09T14:30:49.561Z,19.00
2023-08-09T14:33:17.544Z,18.90
2023-08-09T14:35:45.431Z,18.80
2023-08-09T14:38:14.423Z,18.80
2023-08-09T14:40:43.724Z,18.90
2023-08-09T14:43:11.594Z,19.10
2023-08-09T14:45:39.530Z,19.10
2023-08-09T14:48:07.522Z,19.10
2023-08-09T14:50:35.640Z,19.10
2023-08-09T14:53:03.648Z,19.30
2023-08-09T14:55:31.891Z,19.80
2023-08-09T14:58:01.089Z,20.00
2023-08-09T15:00:29.084Z,20.20
2023-08-09T15:02:57.029Z,20.20
2023-08-09T15:05:24.993Z,20.20
2023-08-09T15:07:53.016Z,20.10
2023-08-09T15:10:20.986Z,20.00
2023-08-09T15:12:48.847Z,20.00
2023-08-09T15:15:18.389Z,20.00
2023-08-09T15:17:46.744Z,20.00
2023-08-09T15:20:15.212Z,20.00
2023-08-09T15:22:43.112Z,20.00
2023-08-09T15:25:19.991Z,19.90
2023-08-09T15:27:48.365Z,19.90
2023-08-09T15:30:19.225Z,20.40
2023-08-09T15:32:49.772Z,20.70
2023-08-09T15:35:17.656Z,21.00
2023-08-09T15:37:45.536Z,21.10
2023-08-09T15:40:14.250Z,21.10
2023-08-09T15:42:42.718Z,21.40
2023-08-09T15:45:11.707Z,21.40
2023-08-09T15:47:41.083Z,21.50
2023-08-09T15:50:10.267Z,21.40
2023-08-09T15:52:38.150Z,21.40
2023-08-09T15:55:07.860Z,21.20
2023-08-09T15:57:35.859Z,21.30
2023-08-09T16:00:04.924Z,21.40
2023-08-09T16:02:33.444Z,20.80
2023-08-09T16:05:03.052Z,20.50
2023-08-09T16:07:30.993Z,20.50
2023-08-09T16:09:59.585Z,20.60
2023-08-09T16:12:28.521Z,20.50
2023-08-09T16:14:56.414Z,20.70
2023-08-09T16:17:24.658Z,20.70
2023-08-09T16:19:55.607Z,20.90
2023-08-09T16:22:24.839Z,20.80
2023-08-09T16:24:53.243Z,20.80
2023-08-09T16:27:21.407Z,20.70
2023-08-09T16:29:49.357Z,20.80
2023-08-09T16:32:17.286Z,20.80
2023-08-09T16:34:45.247Z,20.70
2023-08-09T16:37:13.262Z,20.70
2023-08-09T16:39:42.449Z,20.60
2023-08-09T16:42:11.453Z,20.60
2023-08-09T16:44:39.389Z,20.60
2023-08-09T16:47:07.522Z,20.40
2023-08-09T16:49:35.405Z,20.20
2023-08-09T16:52:03.930Z,20.20
2023-08-09T16:54:32.375Z,20.00
2023-08-09T16:57:01.902Z,20.00
2023-08-09T16:59:30.104Z,20.00
2023-08-09T17:01:58.562Z,20.20
2023-08-09T17:04:26.636Z,20.40
2023-08-09T17:06:54.855Z,20.40
2023-08-09T17:09:22.817Z,20.10
2023-08-09T17:11:50.680Z,20.20
2023-08-09T17:14:19.911Z,20.10
2023-08-09T17:16:47.827Z,20.20
2023-08-09T17:19:15.755Z,20.20
2023-08-09T17:21:43.681Z,20.10
2023-08-09T17:24:11.588Z,20.10
2023-08-09T17:26:40.602Z,20.00
2023-08-09T17:29:10.235Z,20.00
2023-08-09T17:31:39.488Z,20.10
2023-08-09T17:34:07.729Z,20.00
2023-08-09T17:36:35.719Z,20.10
2023-08-09T17:39:04.048Z,20.10
2023-08-09T17:41:32.006Z,20.10
2023-08-09T17:44:00.728Z,20.20
2023-08-09T17:46:28.686Z,20.30
2023-08-09T17:48:57.962Z,20.30
2023-08-09T17:51:26.318Z,20.30
2023-08-09T17:53:54.194Z,20.10
2023-08-09T17:56:24.823Z,20.10
2023-08-09T17:58:52.674Z,20.20
2023-08-09T18:01:21.046Z,20.20
2023-08-09T18:03:49.532Z,20.20
2023-08-09T18:06:18.779Z,19.90
2023-08-09T18:08:46.639Z,19.60
2023-08-09T18:11:14.498Z,19.50
2023-08-09T18:13:42.464Z,19.30
2023-08-09T18:16:10.357Z,19.20
2023-08-09T18:18:38.338Z,18.90
2023-08-09T18:21:06.783Z,18.70
2023-08-09T18:23:36.010Z,18.50
2023-08-09T18:26:03.894Z,18.30
2023-08-09T18:28:32.842Z,18.20
2023-08-09T18:31:00.731Z,18.00
2023-08-09T18:33:30.252Z,17.90
2023-08-09T18:35:59.421Z,17.80
2023-08-09T18:38:27.299Z,17.70
2023-08-09T18:40:56.849Z,17.70
2023-08-09T18:43:24.683Z,17.60
2023-08-09T18:45:52.546Z,17.50
2023-08-09T18:48:20.427Z,17.40
2023-08-09T18:50:48.473Z,17.40
2023-08-09T18:53:16.337Z,17.40
2023-08-09T18:55:44.178Z,17.30
2023-08-09T18:58:13.396Z,17.30
2023-08-09T19:00:41.456Z,17.20
2023-08-09T19:03:09.449Z,17.20
2023-08-09T19:05:37.596Z,17.10
2023-08-09T19:08:06.178Z,17.00
2023-08-09T19:10:34.426Z,17.00
2023-08-09T19:13:02.383Z,16.90
2023-08-09T19:15:31.751Z,16.90
2023-08-09T19:17:59.737Z,17.00
2023-08-09T19:20:28.316Z,16.90
2023-08-09T19:22:57.204Z,16.90
2023-08-09T19:25:25.419Z,16.90
2023-08-09T19:27:54.086Z,16.90
2023-08-09T19:30:22.334Z,17.00
2023-08-09T19:32:52.495Z,17.00
2023-08-09T19:35:20.479Z,17.00
2023-08-09T19:37:48.402Z,16.90
2023-08-09T19:40:16.401Z,16.70
2023-08-09T19:42:44.344Z,16.50
2023-08-09T19:45:13.074Z,16.40
2023-08-09T19:47:40.951Z,16.30
2023-08-09T19:50:11.187Z,16.30
2023-08-09T19:52:39.063Z,16.30
2023-08-09T19:55:07.996Z,16.20
2023-08-09T19:57:35.896Z,16.20
2023-08-09T20:00:09.151Z,16.30
2023-08-09T20:02:37.073Z,16.20
2023-08-09T20:05:05.237Z,16.20
2023-08-09T20:07:34.510Z,16.10
2023-08-09T20:10:02.348Z,16.00
2023-08-09T20:12:30.156Z,16.00
2023-08-09T20:14:57.985Z,16.00
2023-08-09T20:17:25.938Z,15.90
2023-08-09T20:19:55.799Z,15.80
2023-08-09T20:22:24.524Z,15.70
2023-08-09T20:24:53.706Z,15.60
2023-08-09T20:27:21.564Z,15.40
2023-08-09T20:29:49.413Z,15.40
2023-08-09T20:32:17.234Z,15.20
2023-08-09T20:34:45.254Z,15.10
2023-08-09T20:37:13.363Z,15.00
2023-08-09T20:39:41.223Z,14.90
2023-08-09T20:42:11.115Z,14.80
2023-08-09T20:44:38.933Z,14.70
2023-08-09T20:47:08.074Z,14.70
2023-08-09T20:49:36.142Z,14.60
2023-08-09T20:52:05.138Z,14.50
2023-08-09T20:54:33.285Z,14.40
2023-08-09T20:57:00.462Z,14.30
2023-08-09T20:59:32.757Z,14.30
2023-08-09T21:02:01.250Z,14.30
2023-08-09T21:04:29.152Z,14.30
2023-08-09T21:06:56.978Z,14.40
2023-08-09T21:09:25.045Z,14.50
2023-08-09T21:11:52.892Z,14.60
2023-08-09T21:14:21.034Z,14.70
2023-08-09T21:16:50.194Z,14.70
2023-08-09T21:19:19.103Z,14.70
2023-08-09T21:21:47.105Z,14.70
2023-08-09T21:26:51.177Z,14.60
2023-08-09T21:29:24.259Z,14.50
2023-08-09T21:31:54.815Z,14.50
2023-08-09T21:34:22.705Z,14.50
2023-08-09T21:36:50.610Z,14.40
2023-08-09T21:39:18.468Z,14.40
2023-08-09T21:41:46.491Z,14.40
2023-08-09T21:44:14.346Z,14.40
2023-08-09T21:46:42.211Z,14.40
2023-08-09T21:49:11.400Z,14.30
2023-08-09T21:51:39.213Z,14.20
2023-08-09T21:54:07.895Z,14.10
2023-08-09T21:56:35.762Z,14.10
2023-08-09T21:59:04.257Z,14.10
2023-08-09T22:01:32.105Z,14.10
2023-08-09T22:03:59.949Z,14.10
2023-08-09T22:06:29.131Z,14.20
2023-08-09T22:08:56.994Z,14.20
2023-08-09T22:11:24.897Z,14.30
2023-08-09T22:13:52.876Z,14.30
2023-08-09T22:16:20.867Z,14.30
2023-08-09T22:18:48.724Z,14.30
2023-08-09T22:21:16.543Z,14.40
2023-08-09T22:23:45.749Z,14.40
2023-08-09T22:26:13.885Z,14.40
2023-08-09T22:28:41.761Z,14.40
2023-08-09T22:31:09.652Z,14.40
2023-08-09T22:33:37.532Z,14.30
2023-08-09T22:36:05.966Z,14.20
2023-08-09T22:38:33.872Z,14.10
2023-08-09T22:41:03.878Z,14.10
2023-08-09T22:43:31.739Z,14.00
2023-08-09T22:45:59.628Z,13.90
2023-08-09T22:48:27.551Z,13.90
2023-08-09T22:50:55.657Z,13.80
2023-08-09T22:53:25.648Z,13.80
2023-08-09T22:55:53.944Z,13.80
2023-08-09T22:58:24.374Z,13.70
2023-08-09T23:00:52.305Z,13.80
2023-08-09T23:03:21.032Z,13.80
2023-08-09T23:05:49.955Z,13.80
2023-08-09T23:08:18.688Z,13.70
2023-08-09T23:10:46.541Z,13.70
2023-08-09T23:13:14.401Z,13.80
2023-08-09T23:15:45.629Z,13.80
2023-08-09T23:18:14.477Z,13.70
2023-08-09T23:20:42.546Z,13.70
2023-08-09T23:23:11.432Z,13.60
2023-08-09T23:25:39.318Z,13.70
2023-08-09T23:28:07.686Z,13.60
2023-08-09T23:30:36.175Z,13.60
2023-08-09T23:33:06.971Z,13.50
2023-08-09T23:35:34.897Z,13.60
2023-08-09T23:38:03.880Z,13.50
2023-08-09T23:40:31.697Z,13.50
2023-08-09T23:42:59.646Z,13.40
2023-08-09T23:45:27.941Z,13.40
2023-08-09T23:47:55.954Z,13.40
2023-08-09T23:50:25.322Z,13.30
2023-08-09T23:52:53.311Z,13.30
2023-08-09T23:55:21.158Z,13.30
2023-08-09T23:57:48.974Z,13.40
